createdAt,value
2022-09-26T00:01:34.390Z,9.56
2022-09-26T00:04:03.573Z,9.57
2022-09-26T00:06:31.544Z,9.49
2022-09-26T00:08:59.606Z,9.48
2022-09-26T00:11:28.290Z,9.49
2022-09-26T00:13:56.930Z,9.43
2022-09-26T00:16:26.719Z,9.34
2022-09-26T00:18:55.628Z,9.27
2022-09-26T00:21:23.949Z,9.23
2022-09-26T00:23:52.018Z,9.17
2022-09-26T00:26:20.815Z,9.13
2022-09-26T00:28:49.304Z,9.18
2022-09-26T00:31:19.419Z,9.17
2022-09-26T00:33:48.989Z,9.18
2022-09-26T00:36:16.950Z,9.16
2022-09-26T00:38:45.114Z,9.13
2022-09-26T00:41:13.381Z,9.10
2022-09-26T00:43:42.502Z,9.03
2022-09-26T00:46:15.748Z,9.01
2022-09-26T00:48:44.577Z,8.95
2022-09-26T00:51:13.770Z,8.92
2022-09-26T00:53:43.367Z,8.93
2022-09-26T00:56:12.878Z,8.94
2022-09-26T00:58:43.577Z,9.03
2022-09-26T01:01:12.935Z,9.09
2022-09-26T01:03:42.613Z,9.15
2022-09-26T01:06:10.519Z,9.22
2022-09-26T01:08:42.018Z,9.23
2022-09-26T01:11:16.143Z,9.29
2022-09-26T01:13:45.368Z,9.30
2022-09-26T01:16:13.393Z,9.35
2022-09-26T01:18:41.665Z,9.31
2022-09-26T01:21:17.541Z,9.37
2022-09-26T01:24:02.154Z,9.35
2022-09-26T01:26:57.439Z,9.35
2022-09-26T01:29:43.504Z,9.42
2022-09-26T01:32:37.304Z,9.43
2022-09-26T01:35:10.871Z,9.47
2022-09-26T01:37:43.168Z,9.44
2022-09-26T01:40:14.843Z,9.49
2022-09-26T01:42:47.005Z,9.50
2022-09-26T01:45:18.692Z,9.55
2022-09-26T01:47:51.399Z,9.55
2022-09-26T01:50:23.326Z,9.56
2022-09-26T01:52:55.310Z,9.58
2022-09-26T01:55:25.508Z,9.52
2022-09-26T01:57:56.078Z,9.50
2022-09-26T02:00:24.145Z,9.51
2022-09-26T02:02:55.287Z,9.59
2022-09-26T02:05:26.291Z,9.57
2022-09-26T02:07:56.675Z,9.64
2022-09-26T02:10:27.573Z,9.67
2022-09-26T02:12:57.621Z,9.70
2022-09-26T02:15:27.458Z,9.72
2022-09-26T02:17:59.362Z,9.73
2022-09-26T02:20:29.925Z,9.78
2022-09-26T02:22:58.241Z,9.79
2022-09-26T02:25:26.271Z,9.86
2022-09-26T02:27:54.604Z,9.92
2022-09-26T02:30:22.414Z,9.91
2022-09-26T02:32:50.640Z,9.95
2022-09-26T02:35:37.711Z,10.00
2022-09-26T02:38:07.306Z,10.05
2022-09-26T02:40:37.654Z,10.11
2022-09-26T02:43:15.956Z,10.05
2022-09-26T02:45:46.687Z,10.05
2022-09-26T02:48:23.333Z,10.00
2022-09-26T02:51:04.218Z,9.99
2022-09-26T02:53:40.006Z,9.97
2022-09-26T02:56:14.327Z,9.99
2022-09-26T02:58:48.280Z,10.04
2022-09-26T03:01:19.784Z,9.96
2022-09-26T03:03:51.735Z,9.98
2022-09-26T03:06:24.339Z,10.02
2022-09-26T03:08:52.466Z,10.01
2022-09-26T03:11:22.941Z,9.95
2022-09-26T03:13:52.741Z,9.94
2022-09-26T03:16:21.733Z,10.00
2022-09-26T03:18:53.296Z,10.11
2022-09-26T03:21:23.077Z,10.07
2022-09-26T03:23:51.574Z,10.17
2022-09-26T03:26:20.857Z,10.15
2022-09-26T03:28:48.875Z,10.18
2022-09-26T03:31:16.839Z,10.20
2022-09-26T03:33:44.651Z,10.22
2022-09-26T03:36:12.403Z,10.19
2022-09-26T03:38:41.581Z,10.24
2022-09-26T03:41:10.183Z,10.27
2022-09-26T03:43:38.092Z,10.29
2022-09-26T03:46:06.779Z,10.25
2022-09-26T03:48:35.202Z,10.27
2022-09-26T03:51:03.603Z,10.28
2022-09-26T03:53:32.502Z,10.24
2022-09-26T03:56:04.831Z,10.32
2022-09-26T03:58:32.789Z,10.31
2022-09-26T04:01:03.664Z,10.33
2022-09-26T04:03:33.174Z,10.36
2022-09-26T04:06:00.978Z,10.36
2022-09-26T04:08:28.890Z,10.39
2022-09-26T04:11:01.202Z,10.41
2022-09-26T04:16:20.154Z,10.40
2022-09-26T04:18:48.130Z,10.35
2022-09-26T04:21:16.711Z,10.30
2022-09-26T04:23:45.370Z,10.34
2022-09-26T04:26:17.518Z,10.28
2022-09-26T04:28:52.122Z,10.30
2022-09-26T04:31:21.427Z,10.27
2022-09-26T04:33:49.986Z,10.20
2022-09-26T04:36:18.684Z,10.21
2022-09-26T04:38:46.523Z,10.19
2022-09-26T04:41:15.073Z,10.16
2022-09-26T04:43:43.085Z,10.12
2022-09-26T04:46:15.927Z,10.11
2022-09-26T04:48:48.146Z,10.22
2022-09-26T04:51:20.236Z,10.17
2022-09-26T04:53:54.033Z,10.13
2022-09-26T04:56:22.510Z,10.11
2022-09-26T04:58:50.727Z,10.09
2022-09-26T05:01:20.855Z,10.11
2022-09-26T05:03:49.230Z,10.10
2022-09-26T05:06:17.650Z,10.21
2022-09-26T05:08:47.523Z,10.16
2022-09-26T05:11:16.182Z,10.15
2022-09-26T05:13:44.884Z,10.08
2022-09-26T05:16:14.427Z,10.06
2022-09-26T05:18:44.577Z,10.07
2022-09-26T05:21:13.712Z,10.09
2022-09-26T05:24:13.804Z,10.10
2022-09-26T05:26:42.857Z,10.07
2022-09-26T05:29:11.975Z,10.08
2022-09-26T05:31:40.525Z,10.10
2022-09-26T05:34:14.352Z,10.14
2022-09-26T05:36:46.624Z,10.11
2022-09-26T05:39:28.415Z,10.16
2022-09-26T05:41:56.330Z,10.25
2022-09-26T05:44:24.377Z,10.28
2022-09-26T05:46:52.416Z,10.33
2022-09-26T05:49:21.746Z,10.33
2022-09-26T05:51:49.593Z,10.35
2022-09-26T05:54:17.525Z,10.42
2022-09-26T05:56:45.328Z,10.49
2022-09-26T05:59:13.188Z,10.58
2022-09-26T06:01:40.987Z,10.65
2022-09-26T06:04:08.848Z,10.73
2022-09-26T06:06:38.112Z,10.72
2022-09-26T06:09:07.394Z,10.75
2022-09-26T06:11:35.241Z,10.77
2022-09-26T06:14:03.071Z,10.85
2022-09-26T06:16:30.937Z,10.94
2022-09-26T06:18:58.964Z,10.91
2022-09-26T06:21:27.406Z,10.97
2022-09-26T06:23:56.533Z,11.05
2022-09-26T06:26:26.755Z,10.98
2022-09-26T06:28:55.877Z,11.06
2022-09-26T06:31:25.327Z,11.06
2022-09-26T06:33:54.254Z,11.09
2022-09-26T06:36:23.138Z,11.30
2022-09-26T06:38:51.254Z,11.46
2022-09-26T06:41:20.493Z,11.57
2022-09-26T06:43:49.040Z,11.82
2022-09-26T06:46:24.880Z,11.82
2022-09-26T06:48:52.825Z,11.80
2022-09-26T06:51:22.504Z,11.70
2022-09-26T06:53:50.295Z,11.89
2022-09-26T06:56:18.142Z,11.70
2022-09-26T06:58:49.777Z,11.50
2022-09-26T07:01:18.380Z,11.45
2022-09-26T07:03:46.316Z,11.46
2022-09-26T07:06:14.399Z,11.58
2022-09-26T07:11:42.145Z,11.47
2022-09-26T07:14:19.734Z,11.58
2022-09-26T07:16:49.186Z,11.60
2022-09-26T07:19:17.211Z,11.60
2022-09-26T07:21:44.984Z,11.61
2022-09-26T07:24:14.165Z,11.57
2022-09-26T07:26:42.613Z,11.50
2022-09-26T07:29:10.711Z,11.59
2022-09-26T07:31:40.014Z,11.67
2022-09-26T07:34:08.568Z,11.51
2022-09-26T07:36:37.190Z,11.47
2022-09-26T07:39:05.271Z,11.43
2022-09-26T07:41:33.044Z,11.50
2022-09-26T07:47:10.159Z,11.46
2022-09-26T07:49:55.522Z,11.55
2022-09-26T07:52:23.595Z,11.60
2022-09-26T07:54:51.771Z,11.72
2022-09-26T07:57:19.592Z,11.61
2022-09-26T07:59:49.711Z,11.64
2022-09-26T08:02:25.975Z,11.73
2022-09-26T08:05:00.239Z,11.65
2022-09-26T08:07:29.585Z,11.66
2022-09-26T08:09:58.669Z,11.84
2022-09-26T08:12:27.364Z,11.90
2022-09-26T08:14:55.139Z,11.92
2022-09-26T08:17:22.925Z,11.82
2022-09-26T08:19:52.194Z,11.66
2022-09-26T08:22:20.142Z,11.89
2022-09-26T08:24:50.820Z,11.84
2022-09-26T08:27:19.091Z,11.69
2022-09-26T08:29:49.355Z,11.56
2022-09-26T08:32:17.369Z,11.53
2022-09-26T08:34:45.714Z,11.53
2022-09-26T08:37:15.968Z,11.71
2022-09-26T08:39:43.948Z,11.53
2022-09-26T08:42:28.712Z,11.35
2022-09-26T08:45:25.416Z,11.20
2022-09-26T08:47:59.930Z,11.15
2022-09-26T08:50:32.574Z,11.06
2022-09-26T08:53:03.518Z,11.01
2022-09-26T08:55:34.031Z,10.88
2022-09-26T08:58:04.533Z,10.67
2022-09-26T09:00:34.295Z,10.58
2022-09-26T09:03:08.394Z,10.58
2022-09-26T09:05:39.202Z,10.80
2022-09-26T09:08:13.545Z,10.77
2022-09-26T09:10:45.973Z,10.67
2022-09-26T09:13:30.781Z,10.60
2022-09-26T09:16:08.312Z,10.44
2022-09-26T09:18:43.106Z,10.27
2022-09-26T09:21:23.387Z,10.13
2022-09-26T09:23:59.241Z,10.09
2022-09-26T09:29:41.177Z,9.98
2022-09-26T09:32:10.819Z,9.96
2022-09-26T09:34:40.838Z,9.88
2022-09-26T09:37:13.058Z,9.92
2022-09-26T09:39:44.168Z,9.92
2022-09-26T09:42:14.015Z,9.90
2022-09-26T09:44:47.031Z,9.98
2022-09-26T09:47:16.695Z,10.14
2022-09-26T09:49:45.148Z,10.02
2022-09-26T09:52:28.509Z,10.07
2022-09-26T09:55:03.797Z,10.23
2022-09-26T09:57:42.305Z,10.26
2022-09-26T10:00:12.998Z,10.17
2022-09-26T10:02:46.989Z,10.12
2022-09-26T10:05:24.289Z,10.32
2022-09-26T10:07:58.006Z,10.45
2022-09-26T10:10:29.238Z,10.60
2022-09-26T10:12:57.253Z,10.52
2022-09-26T10:15:27.164Z,10.45
2022-09-26T10:18:22.791Z,10.87
2022-09-26T10:20:53.847Z,10.99
2022-09-26T10:23:27.081Z,11.01
2022-09-26T10:26:02.300Z,11.21
2022-09-26T10:28:31.690Z,11.11
2022-09-26T10:31:08.248Z,10.98
2022-09-26T10:33:37.594Z,10.74
2022-09-26T10:36:10.098Z,10.70
2022-09-26T10:39:10.175Z,10.55
2022-09-26T10:41:42.595Z,10.50
2022-09-26T10:44:22.605Z,10.56
2022-09-26T10:46:52.348Z,10.55
2022-09-26T10:49:23.608Z,10.57
2022-09-26T10:51:55.370Z,10.59
2022-09-26T10:54:24.603Z,10.62
2022-09-26T10:56:59.255Z,10.76
2022-09-26T10:59:31.398Z,10.74
2022-09-26T11:02:00.264Z,10.88
2022-09-26T11:04:46.661Z,10.93
2022-09-26T11:07:21.423Z,11.02
2022-09-26T11:09:49.387Z,11.44
2022-09-26T11:12:26.215Z,11.71
2022-09-26T11:14:56.806Z,12.20
2022-09-26T11:17:44.802Z,12.30
2022-09-26T11:20:15.422Z,12.28
2022-09-26T11:22:45.388Z,12.48
2022-09-26T11:25:17.733Z,12.52
2022-09-26T11:27:49.588Z,12.56
2022-09-26T11:30:20.662Z,12.68
2022-09-26T11:32:49.610Z,12.86
2022-09-26T11:35:18.442Z,13.29
2022-09-26T11:38:11.068Z,13.01
2022-09-26T11:40:45.680Z,12.80
2022-09-26T11:43:24.465Z,13.08
2022-09-26T11:46:04.104Z,12.97
2022-09-26T11:48:42.962Z,13.39
2022-09-26T11:51:19.758Z,13.92
2022-09-26T11:53:57.278Z,14.19
2022-09-26T11:56:33.984Z,15.23
2022-09-26T11:59:07.322Z,16.12
2022-09-26T12:01:40.836Z,15.50
2022-09-26T12:04:26.572Z,15.41
2022-09-26T12:06:56.921Z,15.20
2022-09-26T12:09:36.665Z,15.84
2022-09-26T12:12:09.484Z,15.59
2022-09-26T12:14:44.485Z,15.28
2022-09-26T12:17:17.552Z,15.09
2022-09-26T12:19:54.042Z,14.87
2022-09-26T12:22:30.061Z,14.27
2022-09-26T12:25:20.277Z,14.23
2022-09-26T12:27:51.354Z,13.56
2022-09-26T12:30:22.580Z,13.56
2022-09-26T12:33:02.563Z,13.30
2022-09-26T12:35:36.514Z,13.12
2022-09-26T12:38:24.379Z,13.20
2022-09-26T12:41:02.253Z,13.03
2022-09-26T12:43:47.934Z,12.81
2022-09-26T12:46:22.092Z,12.56
2022-09-26T12:49:01.864Z,12.35
2022-09-26T12:51:37.787Z,12.27
2022-09-26T12:54:17.794Z,12.09
2022-09-26T12:56:51.181Z,12.25
2022-09-26T12:59:35.362Z,12.50
2022-09-26T13:02:25.117Z,12.56
2022-09-26T13:05:02.022Z,12.60
2022-09-26T13:07:43.099Z,12.67
2022-09-26T13:10:23.981Z,12.88
2022-09-26T13:13:10.074Z,13.11
2022-09-26T13:15:41.498Z,12.90
2022-09-26T13:18:15.202Z,12.91
2022-09-26T13:20:44.769Z,12.78
2022-09-26T13:23:20.349Z,12.59
2022-09-26T13:25:50.858Z,12.38
2022-09-26T13:28:21.355Z,12.55
2022-09-26T13:30:50.608Z,12.62
2022-09-26T13:33:23.009Z,12.65
2022-09-26T13:35:53.911Z,12.68
2022-09-26T13:38:39.160Z,12.95
2022-09-26T13:41:26.237Z,13.02
2022-09-26T13:44:03.377Z,13.21
2022-09-26T13:46:36.339Z,13.02
2022-09-26T13:49:14.397Z,13.05
2022-09-26T13:51:49.611Z,12.73
2022-09-26T13:54:21.409Z,12.56
2022-09-26T13:56:49.776Z,12.41
2022-09-26T13:59:25.920Z,12.39
2022-09-26T14:02:12.290Z,12.38
2022-09-26T14:04:41.664Z,12.35
2022-09-26T14:07:34.279Z,12.26
2022-09-26T14:10:13.399Z,12.13
2022-09-26T14:12:55.682Z,12.01
2022-09-26T14:15:25.122Z,11.69
2022-09-26T14:18:08.167Z,11.52
2022-09-26T14:20:47.775Z,11.43
2022-09-26T14:23:31.076Z,11.40
2022-09-26T14:26:05.395Z,11.32
2022-09-26T14:28:34.874Z,11.22
2022-09-26T14:31:14.194Z,11.13
2022-09-26T14:33:44.071Z,11.13
2022-09-26T14:36:24.401Z,11.13
2022-09-26T14:38:53.575Z,11.11
2022-09-26T14:41:22.335Z,11.00
2022-09-26T14:43:52.094Z,10.88
2022-09-26T14:46:23.241Z,10.86
2022-09-26T14:48:57.802Z,10.86
2022-09-26T14:51:28.656Z,10.78
2022-09-26T14:54:00.303Z,10.76
2022-09-26T14:56:37.924Z,10.74
2022-09-26T14:59:21.403Z,10.67
2022-09-26T15:01:49.407Z,10.64
2022-09-26T15:04:19.337Z,10.68
2022-09-26T15:06:49.782Z,10.68
2022-09-26T15:09:20.936Z,10.60
2022-09-26T15:11:50.038Z,10.53
2022-09-26T15:14:22.863Z,10.56
2022-09-26T15:16:52.450Z,10.52
2022-09-26T15:19:21.258Z,10.47
2022-09-26T15:21:52.388Z,10.48
2022-09-26T15:24:24.153Z,10.46
2022-09-26T15:26:52.297Z,10.47
2022-09-26T15:29:21.866Z,10.45
2022-09-26T15:31:49.794Z,10.41
2022-09-26T15:34:19.500Z,10.42
2022-09-26T15:36:49.349Z,10.49
2022-09-26T15:39:35.663Z,10.43
2022-09-26T15:42:24.968Z,10.52
2022-09-26T15:44:55.264Z,10.61
2022-09-26T15:47:27.503Z,10.57
2022-09-26T15:50:03.297Z,10.51
2022-09-26T15:52:35.277Z,10.39
2022-09-26T15:55:06.121Z,10.38
2022-09-26T15:57:34.785Z,10.37
2022-09-26T16:00:03.284Z,10.33
2022-09-26T16:02:32.483Z,10.24
2022-09-26T16:05:00.918Z,10.26
2022-09-26T16:07:30.658Z,10.18
2022-09-26T16:09:59.387Z,10.14
2022-09-26T16:12:30.160Z,10.17
2022-09-26T16:15:00.274Z,10.15
2022-09-26T16:17:32.324Z,10.16
2022-09-26T16:20:05.594Z,10.13
2022-09-26T16:22:40.305Z,10.09
2022-09-26T16:25:27.657Z,10.12
2022-09-26T16:28:01.494Z,10.06
2022-09-26T16:30:40.991Z,10.07
2022-09-26T16:33:26.835Z,10.06
2022-09-26T16:35:55.078Z,10.07
2022-09-26T16:38:24.838Z,10.10
2022-09-26T16:40:53.595Z,10.08
2022-09-26T16:43:26.857Z,10.05
2022-09-26T16:46:00.526Z,10.02
2022-09-26T16:48:34.931Z,10.05
2022-09-26T16:51:14.493Z,10.03
2022-09-26T16:53:44.203Z,10.03
2022-09-26T16:56:13.128Z,10.03
2022-09-26T16:58:45.336Z,10.04
2022-09-26T17:01:30.744Z,10.06
2022-09-26T17:03:59.151Z,10.06
2022-09-26T17:06:27.648Z,10.04
2022-09-26T17:08:57.453Z,10.05
2022-09-26T17:11:26.123Z,9.99
2022-09-26T17:13:55.376Z,10.00
2022-09-26T17:16:23.379Z,10.02
2022-09-26T17:18:51.440Z,10.00
2022-09-26T17:21:19.223Z,9.98
2022-09-26T17:23:48.811Z,9.98
2022-09-26T17:26:19.478Z,9.94
2022-09-26T17:28:47.832Z,9.91
2022-09-26T17:31:19.283Z,9.95
2022-09-26T17:33:48.330Z,9.93
2022-09-26T17:36:20.602Z,9.98
2022-09-26T17:38:48.620Z,9.92
2022-09-26T17:41:16.424Z,9.95
2022-09-26T17:43:45.043Z,9.90
2022-09-26T17:46:15.342Z,9.90
2022-09-26T17:48:45.564Z,9.88
2022-09-26T17:51:14.387Z,9.87
2022-09-26T17:53:49.529Z,9.91
2022-09-26T17:56:18.398Z,9.87
2022-09-26T17:58:47.078Z,9.87
2022-09-26T18:01:20.988Z,9.89
2022-09-26T18:03:51.477Z,9.87
2022-09-26T18:06:20.994Z,9.92
2022-09-26T18:08:49.256Z,9.88
2022-09-26T18:11:18.425Z,9.84
2022-09-26T18:13:48.639Z,9.79
2022-09-26T18:16:17.910Z,9.86
2022-09-26T18:18:45.820Z,9.85
2022-09-26T18:21:16.100Z,9.79
2022-09-26T18:23:47.323Z,9.80
2022-09-26T18:26:21.938Z,9.78
2022-09-26T18:28:50.592Z,9.78
2022-09-26T18:31:19.856Z,9.79
2022-09-26T18:33:47.736Z,9.80
2022-09-26T18:36:16.929Z,9.77
2022-09-26T18:38:44.707Z,9.78
2022-09-26T18:41:15.646Z,9.80
2022-09-26T18:43:43.493Z,9.77
2022-09-26T18:46:13.232Z,9.84
2022-09-26T18:48:41.646Z,9.78
2022-09-26T18:51:10.924Z,9.79
2022-09-26T18:53:41.053Z,9.82
2022-09-26T18:56:26.685Z,9.82
2022-09-26T18:58:54.659Z,9.87
2022-09-26T19:01:26.413Z,9.82
2022-09-26T19:03:56.109Z,9.80
2022-09-26T19:06:25.022Z,9.77
2022-09-26T19:08:57.974Z,9.82
2022-09-26T19:11:26.557Z,9.84
2022-09-26T19:13:55.572Z,9.83
2022-09-26T19:16:24.072Z,9.88
2022-09-26T19:18:52.119Z,9.87
2022-09-26T19:21:25.090Z,9.86
2022-09-26T19:23:54.733Z,9.86
2022-09-26T19:26:26.079Z,9.87
2022-09-26T19:28:54.966Z,9.91
2022-09-26T19:31:22.947Z,9.96
2022-09-26T19:33:51.071Z,9.95
2022-09-26T19:36:20.150Z,10.03
2022-09-26T19:38:47.985Z,9.95
2022-09-26T19:41:17.370Z,9.98
2022-09-26T19:43:45.155Z,9.96
2022-09-26T19:46:15.321Z,9.96
2022-09-26T19:48:43.399Z,9.96
2022-09-26T19:51:12.299Z,10.01
2022-09-26T19:53:40.284Z,10.04
2022-09-26T19:56:08.158Z,10.02
2022-09-26T19:58:37.431Z,9.99
2022-09-26T20:01:14.099Z,9.95
2022-09-26T20:03:43.658Z,9.96
2022-09-26T20:06:15.725Z,9.99
2022-09-26T20:08:43.756Z,9.97
2022-09-26T20:11:11.819Z,9.93
2022-09-26T20:13:58.854Z,9.93
2022-09-26T20:16:27.572Z,9.98
2022-09-26T20:18:56.245Z,9.96
2022-09-26T20:21:26.323Z,9.98
2022-09-26T20:23:54.398Z,10.00
2022-09-26T20:26:22.243Z,9.99
2022-09-26T20:28:51.569Z,10.03
2022-09-26T20:31:20.068Z,10.05
2022-09-26T20:33:48.535Z,10.03
2022-09-26T20:36:16.736Z,10.01
2022-09-26T20:38:48.047Z,10.02
2022-09-26T20:41:20.400Z,10.00
2022-09-26T20:43:49.880Z,9.96
2022-09-26T20:46:20.435Z,9.93
2022-09-26T20:48:49.537Z,9.91
2022-09-26T20:51:20.205Z,9.98
2022-09-26T20:53:48.127Z,9.92
2022-09-26T20:56:20.720Z,9.98
2022-09-26T20:58:48.813Z,9.94
2022-09-26T21:01:17.352Z,9.91
2022-09-26T21:03:48.065Z,9.96
2022-09-26T21:06:17.005Z,10.00
2022-09-26T21:08:45.179Z,9.97
2022-09-26T21:11:15.041Z,9.94
2022-09-26T21:13:43.136Z,9.96
2022-09-26T21:16:12.873Z,9.93
2022-09-26T21:18:40.959Z,9.92
2022-09-26T21:21:21.606Z,9.93
2022-09-26T21:23:49.913Z,9.91
2022-09-26T21:26:18.774Z,9.96
2022-09-26T21:28:46.581Z,9.93
2022-09-26T21:31:19.758Z,9.96
2022-09-26T21:33:47.946Z,9.96
2022-09-26T21:36:17.162Z,9.97
2022-09-26T21:38:45.120Z,9.99
2022-09-26T21:41:13.057Z,9.97
2022-09-26T21:43:42.772Z,9.92
2022-09-26T21:46:10.696Z,9.96
2022-09-26T21:48:38.995Z,9.98
2022-09-26T21:51:08.072Z,9.99
2022-09-26T21:53:41.603Z,9.99
2022-09-26T21:56:11.614Z,9.96
2022-09-26T21:58:40.604Z,9.92
2022-09-26T22:01:08.664Z,9.93
2022-09-26T22:03:37.178Z,9.94
2022-09-26T22:06:07.530Z,9.95
2022-09-26T22:08:35.930Z,9.95
2022-09-26T22:11:05.162Z,9.99
2022-09-26T22:13:33.965Z,10.01
2022-09-26T22:16:05.072Z,10.03
2022-09-26T22:18:33.986Z,10.02
2022-09-26T22:21:04.683Z,10.01
2022-09-26T22:23:33.397Z,10.03
2022-09-26T22:26:01.569Z,10.03
2022-09-26T22:28:31.119Z,10.04
2022-09-26T22:31:01.715Z,10.00
2022-09-26T22:33:29.726Z,10.07
2022-09-26T22:35:57.698Z,10.04
2022-09-26T22:38:25.687Z,10.04
2022-09-26T22:40:57.003Z,10.05
2022-09-26T22:43:25.035Z,10.08
2022-09-26T22:45:54.507Z,10.02
2022-09-26T22:48:22.375Z,9.99
2022-09-26T22:50:50.158Z,9.91
2022-09-26T22:53:18.047Z,9.79
2022-09-26T22:55:52.160Z,9.73
2022-09-26T22:58:20.152Z,9.71
2022-09-26T23:00:48.450Z,9.70
2022-09-26T23:03:17.605Z,9.74
2022-09-26T23:05:47.722Z,9.73
2022-09-26T23:08:15.500Z,9.75
2022-09-26T23:10:48.894Z,9.69
2022-09-26T23:13:16.846Z,9.75
2022-09-26T23:15:44.939Z,9.67
2022-09-26T23:18:13.235Z,9.71
2022-09-26T23:20:43.161Z,9.64
2022-09-26T23:23:11.415Z,9.61
2022-09-26T23:25:45.601Z,9.54
2022-09-26T23:28:13.524Z,9.52
2022-09-26T23:30:41.362Z,9.53
2022-09-26T23:33:09.262Z,9.48
2022-09-26T23:35:37.390Z,9.49
2022-09-26T23:38:06.629Z,9.47
2022-09-26T23:40:37.259Z,9.49
2022-09-26T23:43:05.177Z,9.47
2022-09-26T23:45:33.104Z,9.41
2022-09-26T23:48:01.033Z,9.39
2022-09-26T23:50:28.847Z,9.37
2022-09-26T23:52:57.890Z,9.34
2022-09-26T23:55:27.072Z,9.37
2022-09-26T23:57:56.824Z,9.31
